Warrenton, NC (27589)

10:19 AM EST on February 07, 2016 (GMT -0500)
HEMC - Macon | | Change Station
CLOSE
Current Station
Personal Weather Station
Location: Macon, NC
Elevation: 384 ft
Nearby Weather Stations

Elev 384 ft 36.44 °N, 78.07 °W | Updated 3 minutes ago

Partly Cloudy
Partly Cloudy
36.6 °F
Feels Like 37 °F
N
2.0
Wind Variable Wind from NNW
Gusts 7.0 mph

Today
High -- | Low -- °F
--% Chance of Precip.
Yesterday
High -- | Low -- °F
Precip. -- in
Pressure 30.14 in
Visibility 10.0 miles
Clouds Clear
Windchill 37 °F
Dew Point 28 °F
Humidity 72%
Rainfall Not available.
Snow Depth Not available.
7:09 AM 5:44 PM
Waning Crescent, 1% visible
METAR KAVC 071516Z AUTO 02006KT 10SM CLR 02/M04 A3014 RMK AO2 T00231042
Pressure 30.14 in
Visibility 10.0 miles
Clouds Clear
Windchill 37 °F
Dew Point 28 °F
Humidity 72%
Rainfall Not available.
Snow Depth Not available.
7:09 AM 5:44 PM
Waning Crescent, 1% visible
METAR KAVC 071516Z AUTO 02006KT 10SM CLR 02/M04 A3014 RMK AO2 T00231042

10-Day Weather Forecast

Almanac

Astronomy

Feb. 07, 2016 Rise Set
Actual Time
Civil Twilight
Nautical Twilight
Astronomical Twilight
Moon
Length of Visible Light
Length of Day
Tomorrow will be .
, % of the Moon is Illuminated

Today's Extremes

State Highs State Lows

Community

WunderPhotos

Upload Photos

1,891,214 photos uploaded!

WunderBlog® & News

Nearby

Air Quality

  Air Quality AQ Index Pollutant
Not available.

Snow Depth

Station Depth Elevation

Earthquake Activity

City Distance Mag. Time & Date
Minimum magnitude displayed is 2.5.

Coastal Water Temperatures

Place Temperature

Stations

Nearby Weather Stations

Station Location Temp. Windchill Dew Point Humidity Wind Precip. Elev Updated Type
                   

Watches & Warnings

There are currently no watches in effect.